sensor_id;sensor_type;location;lat;lon;timestamp;P1;durP1;ratioP1;P2;durP2;ratioP2
75866;SDS011;64513;56.258;43.980;2022-11-12T00:01:10;14.20;;;6.87;;
75866;SDS011;64513;56.258;43.980;2022-11-12T00:03:36;13.95;;;6.38;;
75866;SDS011;64513;56.258;43.980;2022-11-12T00:06:01;15.03;;;6.43;;
75866;SDS011;64513;56.258;43.980;2022-11-12T00:08:27;14.27;;;7.07;;
75866;SDS011;64513;56.258;43.980;2022-11-12T00:10:52;15.07;;;6.47;;
75866;SDS011;64513;56.258;43.980;2022-11-12T00:13:18;15.73;;;6.30;;
75866;SDS011;64513;56.258;43.980;2022-11-12T00:15:44;13.13;;;5.93;;
75866;SDS011;64513;56.258;43.980;2022-11-12T00:18:10;15.38;;;5.95;;
75866;SDS011;64513;56.258;43.980;2022-11-12T00:20:36;12.65;;;5.70;;
75866;SDS011;64513;56.258;43.980;2022-11-12T00:23:02;10.40;;;5.20;;
75866;SDS011;64513;56.258;43.980;2022-11-12T00:25:28;11.52;;;5.15;;
75866;SDS011;64513;56.258;43.980;2022-11-12T00:27:56;14.30;;;5.90;;
75866;SDS011;64513;56.258;43.980;2022-11-12T00:30:26;16.65;;;6.00;;
75866;SDS011;64513;56.258;43.980;2022-11-12T00:32:52;12.18;;;5.40;;
75866;SDS011;64513;56.258;43.980;2022-11-12T00:35:17;12.73;;;5.07;;
75866;SDS011;64513;56.258;43.980;2022-11-12T00:37:43;11.53;;;4.90;;
75866;SDS011;64513;56.258;43.980;2022-11-12T00:40:08;19.93;;;5.20;;
75866;SDS011;64513;56.258;43.980;2022-11-12T00:42:34;11.48;;;4.55;;
75866;SDS011;64513;56.258;43.980;2022-11-12T00:45:00;10.07;;;4.47;;
75866;SDS011;64513;56.258;43.980;2022-11-12T00:47:25;11.82;;;4.82;;
75866;SDS011;64513;56.258;43.980;2022-11-12T00:49:51;10.20;;;4.43;;
75866;SDS011;64513;56.258;43.980;2022-11-12T00:52:16;11.53;;;5.03;;
75866;SDS011;64513;56.258;43.980;2022-11-12T00:54:42;9.98;;;4.80;;
75866;SDS011;64513;56.258;43.980;2022-11-12T00:57:07;9.70;;;4.37;;
75866;SDS011;64513;56.258;43.980;2022-11-12T00:59:32;10.43;;;4.60;;
75866;SDS011;64513;56.258;43.980;2022-11-12T01:01:58;10.87;;;4.53;;
75866;SDS011;64513;56.258;43.980;2022-11-12T01:04:23;10.38;;;4.43;;
75866;SDS011;64513;56.258;43.980;2022-11-12T01:06:49;11.50;;;4.67;;
75866;SDS011;64513;56.258;43.980;2022-11-12T01:09:14;12.23;;;4.93;;
75866;SDS011;64513;56.258;43.980;2022-11-12T01:11:40;12.53;;;5.30;;
75866;SDS011;64513;56.258;43.980;2022-11-12T01:14:06;11.00;;;4.30;;
75866;SDS011;64513;56.258;43.980;2022-11-12T01:16:37;11.55;;;4.95;;
75866;SDS011;64513;56.258;43.980;2022-11-12T01:19:06;10.05;;;4.78;;
75866;SDS011;64513;56.258;43.980;2022-11-12T01:21:36;10.73;;;4.40;;
75866;SDS011;64513;56.258;43.980;2022-11-12T01:24:03;10.05;;;4.38;;
75866;SDS011;64513;56.258;43.980;2022-11-12T01:26:29;10.27;;;4.38;;
75866;SDS011;64513;56.258;43.980;2022-11-12T01:28:55;9.73;;;4.40;;
75866;SDS011;64513;56.258;43.980;2022-11-12T01:31:25;9.55;;;4.28;;
75866;SDS011;64513;56.258;43.980;2022-11-12T01:33:53;10.68;;;4.15;;
75866;SDS011;64513;56.258;43.980;2022-11-12T01:36:20;9.67;;;4.20;;
75866;SDS011;64513;56.258;43.980;2022-11-12T01:38:47;11.82;;;4.28;;
75866;SDS011;64513;56.258;43.980;2022-11-12T01:41:15;11.73;;;4.28;;
75866;SDS011;64513;56.258;43.980;2022-11-12T01:43:43;9.23;;;3.33;;
75866;SDS011;64513;56.258;43.980;2022-11-12T01:46:12;10.13;;;3.87;;
75866;SDS011;64513;56.258;43.980;2022-11-12T01:48:49;8.70;;;3.97;;
75866;SDS011;64513;56.258;43.980;2022-11-12T01:51:19;11.27;;;3.72;;
75866;SDS011;64513;56.258;43.980;2022-11-12T01:53:46;8.57;;;3.75;;
75866;SDS011;64513;56.258;43.980;2022-11-12T01:56:15;9.05;;;3.67;;
75866;SDS011;64513;56.258;43.980;2022-11-12T01:58:42;8.20;;;3.47;;
75866;SDS011;64513;56.258;43.980;2022-11-12T02:01:10;9.82;;;3.70;;
75866;SDS011;64513;56.258;43.980;2022-11-12T02:03:36;8.10;;;3.53;;
75866;SDS011;64513;56.258;43.980;2022-11-12T02:06:03;7.90;;;3.70;;
75866;SDS011;64513;56.258;43.980;2022-11-12T02:08:33;9.25;;;3.67;;
75866;SDS011;64513;56.258;43.980;2022-11-12T02:11:17;7.57;;;3.60;;
75866;SDS011;64513;56.258;43.980;2022-11-12T02:13:45;8.57;;;3.45;;
75866;SDS011;64513;56.258;43.980;2022-11-12T02:16:12;9.57;;;4.20;;
75866;SDS011;64513;56.258;43.980;2022-11-12T02:18:38;8.23;;;3.58;;
75866;SDS011;64513;56.258;43.980;2022-11-12T02:21:04;7.63;;;3.83;;
75866;SDS011;64513;56.258;43.980;2022-11-12T02:23:33;8.63;;;3.50;;
75866;SDS011;64513;56.258;43.980;2022-11-12T02:25:59;9.47;;;3.70;;
75866;SDS011;64513;56.258;43.980;2022-11-12T02:28:25;8.55;;;3.30;;
75866;SDS011;64513;56.258;43.980;2022-11-12T02:30:52;7.55;;;3.40;;
75866;SDS011;64513;56.258;43.980;2022-11-12T02:33:18;6.17;;;2.53;;
75866;SDS011;64513;56.258;43.980;2022-11-12T02:35:43;7.37;;;3.00;;
75866;SDS011;64513;56.258;43.980;2022-11-12T02:38:09;5.68;;;2.75;;
75866;SDS011;64513;56.258;43.980;2022-11-12T02:40:34;6.93;;;2.90;;
75866;SDS011;64513;56.258;43.980;2022-11-12T02:43:00;6.83;;;2.87;;
75866;SDS011;64513;56.258;43.980;2022-11-12T02:45:26;7.07;;;2.80;;
75866;SDS011;64513;56.258;43.980;2022-11-12T02:47:51;5.90;;;2.50;;
75866;SDS011;64513;56.258;43.980;2022-11-12T02:50:17;7.65;;;2.47;;
75866;SDS011;64513;56.258;43.980;2022-11-12T02:52:42;4.80;;;2.17;;
75866;SDS011;64513;56.258;43.980;2022-11-12T02:55:08;6.22;;;2.63;;
75866;SDS011;64513;56.258;43.980;2022-11-12T02:57:36;8.47;;;2.87;;
75866;SDS011;64513;56.258;43.980;2022-11-12T03:00:07;6.25;;;2.20;;
75866;SDS011;64513;56.258;43.980;2022-11-12T03:02:34;5.95;;;2.45;;
75866;SDS011;64513;56.258;43.980;2022-11-12T03:04:59;6.10;;;2.40;;
75866;SDS011;64513;56.258;43.980;2022-11-12T03:07:25;5.30;;;2.20;;
75866;SDS011;64513;56.258;43.980;2022-11-12T03:09:50;4.90;;;2.10;;
75866;SDS011;64513;56.258;43.980;2022-11-12T03:12:16;6.03;;;2.33;;
75866;SDS011;64513;56.258;43.980;2022-11-12T03:14:41;7.60;;;2.30;;
75866;SDS011;64513;56.258;43.980;2022-11-12T03:17:07;7.60;;;2.47;;
75866;SDS011;64513;56.258;43.980;2022-11-12T03:19:32;4.57;;;2.10;;
75866;SDS011;64513;56.258;43.980;2022-11-12T03:21:58;4.77;;;2.20;;
75866;SDS011;64513;56.258;43.980;2022-11-12T03:24:23;5.45;;;2.03;;
75866;SDS011;64513;56.258;43.980;2022-11-12T03:26:49;5.37;;;2.10;;
75866;SDS011;64513;56.258;43.980;2022-11-12T03:29:14;6.10;;;2.37;;
75866;SDS011;64513;56.258;43.980;2022-11-12T03:31:40;5.70;;;1.92;;
75866;SDS011;64513;56.258;43.980;2022-11-12T03:34:05;5.97;;;1.87;;
75866;SDS011;64513;56.258;43.980;2022-11-12T03:36:31;4.80;;;1.80;;
75866;SDS011;64513;56.258;43.980;2022-11-12T03:38:56;5.07;;;1.50;;
75866;SDS011;64513;56.258;43.980;2022-11-12T03:41:22;3.77;;;1.60;;
75866;SDS011;64513;56.258;43.980;2022-11-12T03:43:47;4.07;;;1.70;;
75866;SDS011;64513;56.258;43.980;2022-11-12T03:46:12;5.40;;;1.83;;
75866;SDS011;64513;56.258;43.980;2022-11-12T03:48:38;4.22;;;1.77;;
75866;SDS011;64513;56.258;43.980;2022-11-12T03:51:03;4.70;;;1.70;;
75866;SDS011;64513;56.258;43.980;2022-11-12T03:53:29;4.23;;;2.00;;
75866;SDS011;64513;56.258;43.980;2022-11-12T03:55:54;4.95;;;1.70;;
75866;SDS011;64513;56.258;43.980;2022-11-12T03:58:20;5.40;;;1.60;;
75866;SDS011;64513;56.258;43.980;2022-11-12T04:00:45;4.80;;;1.50;;
75866;SDS011;64513;56.258;43.980;2022-11-12T04:03:11;4.03;;;1.77;;
75866;SDS011;64513;56.258;43.980;2022-11-12T04:05:36;4.07;;;1.30;;
75866;SDS011;64513;56.258;43.980;2022-11-12T04:08:03;3.93;;;1.27;;
75866;SDS011;64513;56.258;43.980;2022-11-12T04:10:31;5.38;;;1.42;;
75866;SDS011;64513;56.258;43.980;2022-11-12T04:12:56;4.90;;;1.63;;
75866;SDS011;64513;56.258;43.980;2022-11-12T04:15:22;6.13;;;1.50;;
75866;SDS011;64513;56.258;43.980;2022-11-12T04:17:47;5.03;;;1.77;;
75866;SDS011;64513;56.258;43.980;2022-11-12T04:20:12;4.07;;;1.43;;
75866;SDS011;64513;56.258;43.980;2022-11-12T04:22:38;6.40;;;1.70;;
75866;SDS011;64513;56.258;43.980;2022-11-12T04:25:03;5.87;;;1.60;;
75866;SDS011;64513;56.258;43.980;2022-11-12T04:27:30;6.57;;;1.52;;
75866;SDS011;64513;56.258;43.980;2022-11-12T04:29:58;5.47;;;1.35;;
75866;SDS011;64513;56.258;43.980;2022-11-12T04:32:25;6.82;;;1.42;;
75866;SDS011;64513;56.258;43.980;2022-11-12T04:34:51;4.03;;;1.10;;
75866;SDS011;64513;56.258;43.980;2022-11-12T04:37:16;6.60;;;1.85;;
75866;SDS011;64513;56.258;43.980;2022-11-12T04:39:42;4.30;;;1.45;;
75866;SDS011;64513;56.258;43.980;2022-11-12T04:42:08;3.83;;;1.10;;
75866;SDS011;64513;56.258;43.980;2022-11-12T04:44:34;4.95;;;1.50;;
75866;SDS011;64513;56.258;43.980;2022-11-12T04:47:00;5.13;;;1.60;;
75866;SDS011;64513;56.258;43.980;2022-11-12T04:49:25;6.10;;;1.40;;
75866;SDS011;64513;56.258;43.980;2022-11-12T04:51:51;4.17;;;1.50;;
75866;SDS011;64513;56.258;43.980;2022-11-12T04:54:16;5.45;;;2.03;;
75866;SDS011;64513;56.258;43.980;2022-11-12T04:56:42;5.27;;;2.27;;
75866;SDS011;64513;56.258;43.980;2022-11-12T04:59:07;5.00;;;2.07;;
75866;SDS011;64513;56.258;43.980;2022-11-12T05:01:32;8.03;;;2.33;;
75866;SDS011;64513;56.258;43.980;2022-11-12T05:03:58;6.33;;;2.43;;
75866;SDS011;64513;56.258;43.980;2022-11-12T05:06:23;8.80;;;2.70;;
75866;SDS011;64513;56.258;43.980;2022-11-12T05:08:49;6.67;;;2.90;;
75866;SDS011;64513;56.258;43.980;2022-11-12T05:11:14;9.73;;;2.93;;
75866;SDS011;64513;56.258;43.980;2022-11-12T05:13:40;8.07;;;3.90;;
75866;SDS011;64513;56.258;43.980;2022-11-12T05:16:05;11.57;;;3.47;;
75866;SDS011;64513;56.258;43.980;2022-11-12T05:18:31;4.93;;;2.07;;
75866;SDS011;64513;56.258;43.980;2022-11-12T05:20:56;8.33;;;2.30;;
75866;SDS011;64513;56.258;43.980;2022-11-12T05:23:22;7.13;;;2.27;;
75866;SDS011;64513;56.258;43.980;2022-11-12T05:25:47;5.60;;;2.00;;
75866;SDS011;64513;56.258;43.980;2022-11-12T05:28:12;5.03;;;1.63;;
75866;SDS011;64513;56.258;43.980;2022-11-12T05:30:38;4.77;;;1.40;;
75866;SDS011;64513;56.258;43.980;2022-11-12T05:33:03;4.60;;;1.30;;
75866;SDS011;64513;56.258;43.980;2022-11-12T05:35:29;5.83;;;1.40;;
75866;SDS011;64513;56.258;43.980;2022-11-12T05:37:54;4.45;;;1.40;;
75866;SDS011;64513;56.258;43.980;2022-11-12T05:40:20;3.27;;;1.23;;
75866;SDS011;64513;56.258;43.980;2022-11-12T05:42:45;6.00;;;1.40;;
75866;SDS011;64513;56.258;43.980;2022-11-12T05:45:11;3.77;;;1.03;;
75866;SDS011;64513;56.258;43.980;2022-11-12T05:47:37;3.97;;;1.10;;
75866;SDS011;64513;56.258;43.980;2022-11-12T05:50:02;4.00;;;1.17;;
75866;SDS011;64513;56.258;43.980;2022-11-12T05:52:28;6.18;;;1.90;;
75866;SDS011;64513;56.258;43.980;2022-11-12T05:54:54;4.67;;;1.53;;
75866;SDS011;64513;56.258;43.980;2022-11-12T05:57:19;4.65;;;1.90;;
75866;SDS011;64513;56.258;43.980;2022-11-12T05:59:44;6.90;;;3.17;;
75866;SDS011;64513;56.258;43.980;2022-11-12T06:02:10;7.83;;;3.80;;
75866;SDS011;64513;56.258;43.980;2022-11-12T06:04:35;10.27;;;5.27;;
75866;SDS011;64513;56.258;43.980;2022-11-12T06:07:01;8.90;;;4.37;;
75866;SDS011;64513;56.258;43.980;2022-11-12T06:09:26;11.97;;;5.83;;
75866;SDS011;64513;56.258;43.980;2022-11-12T06:11:52;12.63;;;5.40;;
75866;SDS011;64513;56.258;43.980;2022-11-12T06:14:17;10.77;;;4.53;;
75866;SDS011;64513;56.258;43.980;2022-11-12T06:16:43;7.20;;;3.80;;
75866;SDS011;64513;56.258;43.980;2022-11-12T06:19:08;8.90;;;3.70;;
75866;SDS011;64513;56.258;43.980;2022-11-12T06:21:34;7.33;;;2.67;;
75866;SDS011;64513;56.258;43.980;2022-11-12T06:23:59;10.43;;;2.93;;
75866;SDS011;64513;56.258;43.980;2022-11-12T06:26:25;8.57;;;4.03;;
75866;SDS011;64513;56.258;43.980;2022-11-12T06:28:53;8.32;;;4.00;;
75866;SDS011;64513;56.258;43.980;2022-11-12T06:31:19;5.55;;;2.85;;
75866;SDS011;64513;56.258;43.980;2022-11-12T06:33:45;5.75;;;2.70;;
75866;SDS011;64513;56.258;43.980;2022-11-12T06:36:12;4.97;;;1.83;;
75866;SDS011;64513;56.258;43.980;2022-11-12T06:38:39;3.90;;;1.55;;
75866;SDS011;64513;56.258;43.980;2022-11-12T06:41:05;4.93;;;1.90;;
75866;SDS011;64513;56.258;43.980;2022-11-12T06:43:33;6.05;;;2.67;;
75866;SDS011;64513;56.258;43.980;2022-11-12T06:45:59;7.32;;;3.30;;
75866;SDS011;64513;56.258;43.980;2022-11-12T06:48:29;8.93;;;3.57;;
75866;SDS011;64513;56.258;43.980;2022-11-12T06:50:55;5.80;;;2.90;;
75866;SDS011;64513;56.258;43.980;2022-11-12T06:53:21;9.70;;;3.60;;
75866;SDS011;64513;56.258;43.980;2022-11-12T06:55:47;6.95;;;3.50;;
75866;SDS011;64513;56.258;43.980;2022-11-12T06:58:12;9.63;;;4.47;;
75866;SDS011;64513;56.258;43.980;2022-11-12T07:00:38;6.90;;;3.50;;
75866;SDS011;64513;56.258;43.980;2022-11-12T07:03:06;10.13;;;4.80;;
75866;SDS011;64513;56.258;43.980;2022-11-12T07:05:36;9.30;;;4.43;;
75866;SDS011;64513;56.258;43.980;2022-11-12T07:08:03;9.40;;;4.27;;
75866;SDS011;64513;56.258;43.980;2022-11-12T07:10:29;7.57;;;3.40;;
75866;SDS011;64513;56.258;43.980;2022-11-12T07:12:55;9.13;;;3.60;;
75866;SDS011;64513;56.258;43.980;2022-11-12T07:15:20;7.23;;;2.87;;
75866;SDS011;64513;56.258;43.980;2022-11-12T07:17:46;7.37;;;3.00;;
75866;SDS011;64513;56.258;43.980;2022-11-12T07:20:11;9.30;;;3.40;;
75866;SDS011;64513;56.258;43.980;2022-11-12T07:22:37;6.07;;;2.63;;
75866;SDS011;64513;56.258;43.980;2022-11-12T07:25:03;8.70;;;3.28;;
75866;SDS011;64513;56.258;43.980;2022-11-12T07:27:29;7.87;;;2.90;;
75866;SDS011;64513;56.258;43.980;2022-11-12T07:29:55;6.78;;;3.17;;
75866;SDS011;64513;56.258;43.980;2022-11-12T07:32:20;7.37;;;2.40;;
75866;SDS011;64513;56.258;43.980;2022-11-12T07:34:45;5.70;;;2.72;;
75866;SDS011;64513;56.258;43.980;2022-11-12T07:37:11;7.57;;;2.93;;
75866;SDS011;64513;56.258;43.980;2022-11-12T07:39:36;5.97;;;2.57;;
75866;SDS011;64513;56.258;43.980;2022-11-12T07:42:02;5.13;;;2.70;;
75866;SDS011;64513;56.258;43.980;2022-11-12T07:44:27;6.75;;;2.78;;
75866;SDS011;64513;56.258;43.980;2022-11-12T07:46:53;4.70;;;2.47;;
75866;SDS011;64513;56.258;43.980;2022-11-12T07:49:18;5.43;;;2.70;;
75866;SDS011;64513;56.258;43.980;2022-11-12T07:51:44;5.57;;;2.80;;
75866;SDS011;64513;56.258;43.980;2022-11-12T07:54:09;5.53;;;2.60;;
75866;SDS011;64513;56.258;43.980;2022-11-12T07:56:35;7.00;;;2.57;;
75866;SDS011;64513;56.258;43.980;2022-11-12T07:59:00;5.47;;;2.43;;
75866;SDS011;64513;56.258;43.980;2022-11-12T08:01:30;9.40;;;2.83;;
75866;SDS011;64513;56.258;43.980;2022-11-12T08:03:57;6.47;;;2.60;;
75866;SDS011;64513;56.258;43.980;2022-11-12T08:06:23;6.93;;;2.70;;
75866;SDS011;64513;56.258;43.980;2022-11-12T08:08:56;6.95;;;2.38;;
75866;SDS011;64513;56.258;43.980;2022-11-12T08:11:23;4.45;;;2.00;;
75866;SDS011;64513;56.258;43.980;2022-11-12T08:13:48;5.63;;;2.17;;
75866;SDS011;64513;56.258;43.980;2022-11-12T08:16:14;4.90;;;1.80;;
75866;SDS011;64513;56.258;43.980;2022-11-12T08:18:41;3.83;;;1.58;;
75866;SDS011;64513;56.258;43.980;2022-11-12T08:21:08;4.70;;;1.70;;
75866;SDS011;64513;56.258;43.980;2022-11-12T08:23:38;4.68;;;1.73;;
75866;SDS011;64513;56.258;43.980;2022-11-12T08:26:05;3.67;;;1.60;;
75866;SDS011;64513;56.258;43.980;2022-11-12T08:28:33;3.83;;;1.60;;
75866;SDS011;64513;56.258;43.980;2022-11-12T08:31:04;13.18;;;2.00;;
75866;SDS011;64513;56.258;43.980;2022-11-12T08:33:34;3.55;;;1.60;;
75866;SDS011;64513;56.258;43.980;2022-11-12T08:36:03;3.77;;;1.50;;
75866;SDS011;64513;56.258;43.980;2022-11-12T08:38:30;4.72;;;1.83;;
75866;SDS011;64513;56.258;43.980;2022-11-12T08:41:00;5.07;;;1.80;;
75866;SDS011;64513;56.258;43.980;2022-11-12T08:43:26;3.80;;;1.60;;
75866;SDS011;64513;56.258;43.980;2022-11-12T08:45:52;6.07;;;1.73;;
75866;SDS011;64513;56.258;43.980;2022-11-12T08:48:17;4.40;;;1.37;;
75866;SDS011;64513;56.258;43.980;2022-11-12T08:50:43;5.82;;;2.10;;
75866;SDS011;64513;56.258;43.980;2022-11-12T08:53:09;6.27;;;1.67;;
75866;SDS011;64513;56.258;43.980;2022-11-12T08:55:36;3.97;;;1.90;;
75866;SDS011;64513;56.258;43.980;2022-11-12T08:58:02;4.30;;;1.90;;
75866;SDS011;64513;56.258;43.980;2022-11-12T09:00:28;5.03;;;2.10;;
75866;SDS011;64513;56.258;43.980;2022-11-12T09:02:59;5.35;;;1.83;;
75866;SDS011;64513;56.258;43.980;2022-11-12T09:05:25;4.15;;;1.70;;
75866;SDS011;64513;56.258;43.980;2022-11-12T09:10:24;4.95;;;1.50;;
75866;SDS011;64513;56.258;43.980;2022-11-12T09:12:50;3.15;;;1.38;;
75866;SDS011;64513;56.258;43.980;2022-11-12T09:15:16;3.95;;;1.60;;
75866;SDS011;64513;56.258;43.980;2022-11-12T09:17:41;3.90;;;1.73;;
75866;SDS011;64513;56.258;43.980;2022-11-12T09:20:07;3.30;;;1.40;;
75866;SDS011;64513;56.258;43.980;2022-11-12T09:22:33;3.75;;;1.50;;
75866;SDS011;64513;56.258;43.980;2022-11-12T09:24:58;4.20;;;1.80;;
75866;SDS011;64513;56.258;43.980;2022-11-12T09:27:27;5.50;;;1.90;;
75866;SDS011;64513;56.258;43.980;2022-11-12T09:29:53;4.10;;;1.60;;
75866;SDS011;64513;56.258;43.980;2022-11-12T09:32:18;3.78;;;1.30;;
75866;SDS011;64513;56.258;43.980;2022-11-12T09:34:44;4.53;;;1.90;;
75866;SDS011;64513;56.258;43.980;2022-11-12T09:37:10;3.90;;;1.42;;
75866;SDS011;64513;56.258;43.980;2022-11-12T09:39:35;4.27;;;1.83;;
75866;SDS011;64513;56.258;43.980;2022-11-12T09:42:07;3.30;;;1.27;;
75866;SDS011;64513;56.258;43.980;2022-11-12T09:44:37;4.60;;;1.88;;
75866;SDS011;64513;56.258;43.980;2022-11-12T09:52:24;5.77;;;2.40;;
75866;SDS011;64513;56.258;43.980;2022-11-12T09:57:52;4.35;;;1.58;;
75866;SDS011;64513;56.258;43.980;2022-11-12T10:00:18;4.83;;;1.43;;
75866;SDS011;64513;56.258;43.980;2022-11-12T10:10:42;4.05;;;1.25;;
75866;SDS011;64513;56.258;43.980;2022-11-12T10:19:00;4.28;;;1.08;;
75866;SDS011;64513;56.258;43.980;2022-11-12T10:24:06;3.38;;;0.85;;
75866;SDS011;64513;56.258;43.980;2022-11-12T10:26:33;2.30;;;0.73;;
75866;SDS011;64513;56.258;43.980;2022-11-12T10:31:38;3.70;;;0.90;;
75866;SDS011;64513;56.258;43.980;2022-11-12T10:36:35;3.70;;;1.30;;
75866;SDS011;64513;56.258;43.980;2022-11-12T10:39:03;4.85;;;2.10;;
75866;SDS011;64513;56.258;43.980;2022-11-12T10:41:29;5.80;;;1.60;;
75866;SDS011;64513;56.258;43.980;2022-11-12T10:43:58;4.57;;;1.42;;
75866;SDS011;64513;56.258;43.980;2022-11-12T10:46:26;4.70;;;1.43;;
75866;SDS011;64513;56.258;43.980;2022-11-12T10:48:57;5.50;;;2.05;;
75866;SDS011;64513;56.258;43.980;2022-11-12T10:51:37;6.22;;;2.20;;
75866;SDS011;64513;56.258;43.980;2022-11-12T10:56:58;5.30;;;1.77;;
75866;SDS011;64513;56.258;43.980;2022-11-12T10:59:43;5.82;;;1.48;;
75866;SDS011;64513;56.258;43.980;2022-11-12T11:02:14;4.53;;;1.60;;
75866;SDS011;64513;56.258;43.980;2022-11-12T11:04:45;5.70;;;2.08;;
75866;SDS011;64513;56.258;43.980;2022-11-12T11:10:11;5.43;;;2.17;;
75866;SDS011;64513;56.258;43.980;2022-11-12T11:16:03;5.83;;;1.60;;
75866;SDS011;64513;56.258;43.980;2022-11-12T11:18:29;5.30;;;1.60;;
75866;SDS011;64513;56.258;43.980;2022-11-12T11:24:06;3.90;;;1.48;;
75866;SDS011;64513;56.258;43.980;2022-11-12T11:57:10;4.97;;;1.93;;
75866;SDS011;64513;56.258;43.980;2022-11-12T12:07:38;6.80;;;2.33;;
75866;SDS011;64513;56.258;43.980;2022-11-12T12:10:26;8.37;;;2.00;;
75866;SDS011;64513;56.258;43.980;2022-11-12T12:21:19;5.72;;;2.50;;
75866;SDS011;64513;56.258;43.980;2022-11-12T12:24:01;6.70;;;2.70;;
75866;SDS011;64513;56.258;43.980;2022-11-12T12:26:39;8.10;;;3.10;;
75866;SDS011;64513;56.258;43.980;2022-11-12T12:29:16;7.35;;;3.25;;
75866;SDS011;64513;56.258;43.980;2022-11-12T12:31:54;6.90;;;3.10;;
75866;SDS011;64513;56.258;43.980;2022-11-12T12:34:30;6.25;;;3.15;;
75866;SDS011;64513;56.258;43.980;2022-11-12T12:37:44;7.67;;;3.50;;
75866;SDS011;64513;56.258;43.980;2022-11-12T12:40:07;8.25;;;3.83;;
75866;SDS011;64513;56.258;43.980;2022-11-12T12:42:56;8.13;;;4.00;;
75866;SDS011;64513;56.258;43.980;2022-11-12T12:45:38;9.30;;;3.75;;
75866;SDS011;64513;56.258;43.980;2022-11-12T12:48:18;7.90;;;3.42;;
75866;SDS011;64513;56.258;43.980;2022-11-12T12:50:51;6.47;;;3.50;;
75866;SDS011;64513;56.258;43.980;2022-11-12T12:55:52;6.45;;;3.22;;
75866;SDS011;64513;56.258;43.980;2022-11-12T13:03:52;6.00;;;2.73;;
75866;SDS011;64513;56.258;43.980;2022-11-12T13:06:25;7.88;;;2.78;;
75866;SDS011;64513;56.258;43.980;2022-11-12T13:09:20;9.80;;;3.65;;
75866;SDS011;64513;56.258;43.980;2022-11-12T13:11:54;8.18;;;2.75;;
75866;SDS011;64513;56.258;43.980;2022-11-12T13:17:00;7.13;;;3.13;;
75866;SDS011;64513;56.258;43.980;2022-11-12T13:37:51;7.30;;;3.47;;
75866;SDS011;64513;56.258;43.980;2022-11-12T13:41:10;6.38;;;3.03;;
75866;SDS011;64513;56.258;43.980;2022-11-12T13:45:46;7.13;;;3.28;;
75866;SDS011;64513;56.258;43.980;2022-11-12T13:48:22;6.53;;;2.83;;
75866;SDS011;64513;56.258;43.980;2022-11-12T13:50:54;7.07;;;2.87;;
75866;SDS011;64513;56.258;43.980;2022-11-12T13:53:24;7.25;;;2.88;;
75866;SDS011;64513;56.258;43.980;2022-11-12T13:55:51;5.50;;;2.40;;
75866;SDS011;64513;56.258;43.980;2022-11-12T13:58:28;6.20;;;2.55;;
75866;SDS011;64513;56.258;43.980;2022-11-12T14:00:59;5.03;;;2.40;;
75866;SDS011;64513;56.258;43.980;2022-11-12T14:03:45;5.77;;;2.37;;
75866;SDS011;64513;56.258;43.980;2022-11-12T14:06:26;6.63;;;2.33;;
75866;SDS011;64513;56.258;43.980;2022-11-12T14:17:46;4.23;;;1.70;;
75866;SDS011;64513;56.258;43.980;2022-11-12T14:22:37;4.17;;;1.80;;
75866;SDS011;64513;56.258;43.980;2022-11-12T14:25:09;5.80;;;2.17;;
75866;SDS011;64513;56.258;43.980;2022-11-12T14:27:40;8.33;;;3.20;;
75866;SDS011;64513;56.258;43.980;2022-11-12T14:32:36;5.13;;;1.90;;
75866;SDS011;64513;56.258;43.980;2022-11-12T14:37:57;4.60;;;2.17;;
75866;SDS011;64513;56.258;43.980;2022-11-12T14:40:28;5.50;;;1.53;;
75866;SDS011;64513;56.258;43.980;2022-11-12T14:42:55;4.78;;;1.88;;
75866;SDS011;64513;56.258;43.980;2022-11-12T14:45:21;4.15;;;1.40;;
75866;SDS011;64513;56.258;43.980;2022-11-12T14:47:47;6.43;;;2.70;;
75866;SDS011;64513;56.258;43.980;2022-11-12T14:50:18;6.10;;;2.00;;
75866;SDS011;64513;56.258;43.980;2022-11-12T14:53:06;5.47;;;2.30;;
75866;SDS011;64513;56.258;43.980;2022-11-12T14:55:38;5.43;;;1.60;;
75866;SDS011;64513;56.258;43.980;2022-11-12T14:58:17;4.03;;;1.50;;
75866;SDS011;64513;56.258;43.980;2022-11-12T15:00:46;6.57;;;1.27;;
75866;SDS011;64513;56.258;43.980;2022-11-12T15:03:15;4.68;;;1.50;;
75866;SDS011;64513;56.258;43.980;2022-11-12T15:05:51;4.05;;;1.35;;
75866;SDS011;64513;56.258;43.980;2022-11-12T15:08:28;3.22;;;1.13;;
75866;SDS011;64513;56.258;43.980;2022-11-12T15:10:54;3.72;;;1.20;;
75866;SDS011;64513;56.258;43.980;2022-11-12T15:13:21;3.40;;;1.10;;
75866;SDS011;64513;56.258;43.980;2022-11-12T15:18:27;3.17;;;0.90;;
75866;SDS011;64513;56.258;43.980;2022-11-12T15:21:06;5.82;;;0.98;;
75866;SDS011;64513;56.258;43.980;2022-11-12T15:23:49;3.60;;;1.00;;
75866;SDS011;64513;56.258;43.980;2022-11-12T15:26:39;3.63;;;1.00;;
75866;SDS011;64513;56.258;43.980;2022-11-12T15:31:45;3.67;;;1.13;;
75866;SDS011;64513;56.258;43.980;2022-11-12T15:37:10;6.53;;;0.90;;
75866;SDS011;64513;56.258;43.980;2022-11-12T15:39:56;4.53;;;0.80;;
75866;SDS011;64513;56.258;43.980;2022-11-12T15:42:26;5.63;;;0.90;;
75866;SDS011;64513;56.258;43.980;2022-11-12T15:45:01;6.43;;;1.05;;
75866;SDS011;64513;56.258;43.980;2022-11-12T15:47:29;6.10;;;1.02;;
75866;SDS011;64513;56.258;43.980;2022-11-12T15:49:55;4.80;;;0.93;;
75866;SDS011;64513;56.258;43.980;2022-11-12T15:52:22;2.60;;;0.80;;
75866;SDS011;64513;56.258;43.980;2022-11-12T15:54:48;2.40;;;0.77;;
75866;SDS011;64513;56.258;43.980;2022-11-12T15:57:17;3.60;;;0.60;;
75866;SDS011;64513;56.258;43.980;2022-11-12T15:59:55;5.43;;;0.73;;
75866;SDS011;64513;56.258;43.980;2022-11-12T16:02:25;3.37;;;0.97;;
75866;SDS011;64513;56.258;43.980;2022-11-12T16:04:50;3.30;;;1.10;;
75866;SDS011;64513;56.258;43.980;2022-11-12T16:07:16;3.90;;;0.90;;
75866;SDS011;64513;56.258;43.980;2022-11-12T16:09:41;3.53;;;0.80;;
75866;SDS011;64513;56.258;43.980;2022-11-12T16:12:09;3.40;;;0.90;;
75866;SDS011;64513;56.258;43.980;2022-11-12T16:14:35;2.92;;;0.60;;
75866;SDS011;64513;56.258;43.980;2022-11-12T16:17:01;2.60;;;0.57;;
75866;SDS011;64513;56.258;43.980;2022-11-12T16:19:26;3.10;;;0.67;;
75866;SDS011;64513;56.258;43.980;2022-11-12T16:21:52;3.17;;;0.70;;
75866;SDS011;64513;56.258;43.980;2022-11-12T16:24:17;3.53;;;0.90;;
75866;SDS011;64513;56.258;43.980;2022-11-12T16:26:43;4.27;;;1.00;;
75866;SDS011;64513;56.258;43.980;2022-11-12T16:29:11;4.60;;;0.85;;
75866;SDS011;64513;56.258;43.980;2022-11-12T16:31:39;3.57;;;0.90;;
75866;SDS011;64513;56.258;43.980;2022-11-12T16:34:05;3.53;;;0.60;;
75866;SDS011;64513;56.258;43.980;2022-11-12T16:36:31;3.03;;;0.70;;
75866;SDS011;64513;56.258;43.980;2022-11-12T16:38:56;3.10;;;0.60;;
75866;SDS011;64513;56.258;43.980;2022-11-12T16:41:22;3.00;;;0.80;;
75866;SDS011;64513;56.258;43.980;2022-11-12T16:43:47;4.00;;;0.80;;
75866;SDS011;64513;56.258;43.980;2022-11-12T16:46:14;2.63;;;0.60;;
75866;SDS011;64513;56.258;43.980;2022-11-12T16:48:53;3.70;;;0.90;;
75866;SDS011;64513;56.258;43.980;2022-11-12T16:51:19;2.88;;;0.98;;
75866;SDS011;64513;56.258;43.980;2022-11-12T16:53:45;2.95;;;1.02;;
75866;SDS011;64513;56.258;43.980;2022-11-12T16:56:21;3.10;;;1.10;;
75866;SDS011;64513;56.258;43.980;2022-11-12T16:58:52;3.40;;;1.33;;
75866;SDS011;64513;56.258;43.980;2022-11-12T17:01:25;3.57;;;1.63;;
75866;SDS011;64513;56.258;43.980;2022-11-12T17:03:52;3.50;;;1.65;;
75866;SDS011;64513;56.258;43.980;2022-11-12T17:06:18;4.25;;;2.03;;